sensor_id;sensor_type;location;lat;lon;timestamp;temperature;humidity
7476;DHT22;3779;49.216;8.650;2024-03-08T00:01:46;19.50;41.40
7476;DHT22;3779;49.216;8.650;2024-03-08T00:04:32;19.50;39.20
7476;DHT22;3779;49.216;8.650;2024-03-08T00:07:17;19.50;40.50
7476;DHT22;3779;49.216;8.650;2024-03-08T00:10:04;19.50;39.50
7476;DHT22;3779;49.216;8.650;2024-03-08T00:12:50;19.50;40.00
7476;DHT22;3779;49.216;8.650;2024-03-08T00:15:37;19.50;40.80
7476;DHT22;3779;49.216;8.650;2024-03-08T00:18:23;19.50;39.60
7476;DHT22;3779;49.216;8.650;2024-03-08T00:21:08;19.50;41.20
7476;DHT22;3779;49.216;8.650;2024-03-08T00:23:55;19.50;43.90
7476;DHT22;3779;49.216;8.650;2024-03-08T00:26:41;19.50;40.30
7476;DHT22;3779;49.216;8.650;2024-03-08T00:29:28;19.50;40.80
7476;DHT22;3779;49.216;8.650;2024-03-08T00:32:14;19.50;40.80
7476;DHT22;3779;49.216;8.650;2024-03-08T00:35:00;19.50;43.00
7476;DHT22;3779;49.216;8.650;2024-03-08T00:37:46;19.50;40.10
7476;DHT22;3779;49.216;8.650;2024-03-08T00:40:34;19.50;40.20
7476;DHT22;3779;49.216;8.650;2024-03-08T00:43:20;19.60;39.40
7476;DHT22;3779;49.216;8.650;2024-03-08T00:46:05;19.50;39.00
7476;DHT22;3779;49.216;8.650;2024-03-08T00:48:51;19.50;40.10
7476;DHT22;3779;49.216;8.650;2024-03-08T00:51:37;19.50;39.70
7476;DHT22;3779;49.216;8.650;2024-03-08T00:54:23;19.50;39.80
7476;DHT22;3779;49.216;8.650;2024-03-08T00:57:09;19.50;38.50
7476;DHT22;3779;49.216;8.650;2024-03-08T00:59:54;19.50;40.60
7476;DHT22;3779;49.216;8.650;2024-03-08T01:02:41;19.50;41.10
7476;DHT22;3779;49.216;8.650;2024-03-08T01:05:27;19.50;40.00
7476;DHT22;3779;49.216;8.650;2024-03-08T01:08:13;19.50;39.80
7476;DHT22;3779;49.216;8.650;2024-03-08T01:10:58;19.40;38.80
7476;DHT22;3779;49.216;8.650;2024-03-08T01:13:44;19.40;39.60
7476;DHT22;3779;49.216;8.650;2024-03-08T01:16:32;19.50;39.50
7476;DHT22;3779;49.216;8.650;2024-03-08T01:19:18;19.50;39.20
7476;DHT22;3779;49.216;8.650;2024-03-08T01:22:04;19.50;39.30
7476;DHT22;3779;49.216;8.650;2024-03-08T01:24:50;19.50;41.20
7476;DHT22;3779;49.216;8.650;2024-03-08T01:27:36;19.50;40.70
7476;DHT22;3779;49.216;8.650;2024-03-08T01:30:22;19.50;39.80
7476;DHT22;3779;49.216;8.650;2024-03-08T01:33:08;19.50;41.30
7476;DHT22;3779;49.216;8.650;2024-03-08T01:35:54;19.50;40.00
7476;DHT22;3779;49.216;8.650;2024-03-08T01:38:40;19.60;40.70
7476;DHT22;3779;49.216;8.650;2024-03-08T01:41:26;19.50;39.80
7476;DHT22;3779;49.216;8.650;2024-03-08T01:44:15;19.50;41.00
7476;DHT22;3779;49.216;8.650;2024-03-08T01:47:03;19.50;42.90
7476;DHT22;3779;49.216;8.650;2024-03-08T01:49:49;19.60;41.80
7476;DHT22;3779;49.216;8.650;2024-03-08T01:52:36;19.60;41.00
7476;DHT22;3779;49.216;8.650;2024-03-08T01:55:22;19.60;41.00
7476;DHT22;3779;49.216;8.650;2024-03-08T01:58:09;19.50;41.70
7476;DHT22;3779;49.216;8.650;2024-03-08T02:00:57;19.60;40.60
7476;DHT22;3779;49.216;8.650;2024-03-08T02:03:45;19.60;39.20
7476;DHT22;3779;49.216;8.650;2024-03-08T02:06:31;19.50;38.90
7476;DHT22;3779;49.216;8.650;2024-03-08T02:09:17;19.50;40.90
7476;DHT22;3779;49.216;8.650;2024-03-08T02:12:03;19.50;42.60
7476;DHT22;3779;49.216;8.650;2024-03-08T02:14:53;19.50;41.60
7476;DHT22;3779;49.216;8.650;2024-03-08T02:17:39;19.60;42.00
7476;DHT22;3779;49.216;8.650;2024-03-08T02:20:28;19.60;39.40
7476;DHT22;3779;49.216;8.650;2024-03-08T02:23:14;19.50;37.50
7476;DHT22;3779;49.216;8.650;2024-03-08T02:26:00;19.40;38.80
7476;DHT22;3779;49.216;8.650;2024-03-08T02:28:46;19.40;41.10
7476;DHT22;3779;49.216;8.650;2024-03-08T02:31:33;19.40;38.90
7476;DHT22;3779;49.216;8.650;2024-03-08T02:34:18;19.40;40.70
7476;DHT22;3779;49.216;8.650;2024-03-08T02:37:05;19.40;38.90
7476;DHT22;3779;49.216;8.650;2024-03-08T02:39:51;19.40;38.70
7476;DHT22;3779;49.216;8.650;2024-03-08T02:42:37;19.40;40.70
7476;DHT22;3779;49.216;8.650;2024-03-08T02:45:22;19.40;38.70
7476;DHT22;3779;49.216;8.650;2024-03-08T02:48:08;19.50;39.00
7476;DHT22;3779;49.216;8.650;2024-03-08T02:50:54;19.40;40.70
7476;DHT22;3779;49.216;8.650;2024-03-08T02:53:40;19.40;41.70
7476;DHT22;3779;49.216;8.650;2024-03-08T02:56:25;19.60;39.80
7476;DHT22;3779;49.216;8.650;2024-03-08T02:59:12;19.50;40.20
7476;DHT22;3779;49.216;8.650;2024-03-08T03:01:58;19.40;40.90
7476;DHT22;3779;49.216;8.650;2024-03-08T03:04:44;19.40;40.80
7476;DHT22;3779;49.216;8.650;2024-03-08T03:07:29;19.40;39.90
7476;DHT22;3779;49.216;8.650;2024-03-08T03:10:19;19.40;39.40
7476;DHT22;3779;49.216;8.650;2024-03-08T03:13:05;19.40;41.10
7476;DHT22;3779;49.216;8.650;2024-03-08T03:15:50;19.50;40.20
7476;DHT22;3779;49.216;8.650;2024-03-08T03:18:37;19.40;40.80
7476;DHT22;3779;49.216;8.650;2024-03-08T03:21:23;19.50;41.40
7476;DHT22;3779;49.216;8.650;2024-03-08T03:24:09;19.50;39.10
7476;DHT22;3779;49.216;8.650;2024-03-08T03:26:55;19.50;39.00
7476;DHT22;3779;49.216;8.650;2024-03-08T03:29:42;19.50;37.50
7476;DHT22;3779;49.216;8.650;2024-03-08T03:32:31;19.40;38.80
7476;DHT22;3779;49.216;8.650;2024-03-08T03:35:17;19.40;38.10
7476;DHT22;3779;49.216;8.650;2024-03-08T03:38:03;19.40;36.80
7476;DHT22;3779;49.216;8.650;2024-03-08T03:40:52;19.30;37.20
7476;DHT22;3779;49.216;8.650;2024-03-08T03:43:42;19.30;39.40
7476;DHT22;3779;49.216;8.650;2024-03-08T03:46:28;19.30;40.00
7476;DHT22;3779;49.216;8.650;2024-03-08T03:49:14;19.50;40.00
7476;DHT22;3779;49.216;8.650;2024-03-08T03:51:59;19.50;40.40
7476;DHT22;3779;49.216;8.650;2024-03-08T03:54:45;19.40;39.90
7476;DHT22;3779;49.216;8.650;2024-03-08T03:57:31;19.40;41.90
7476;DHT22;3779;49.216;8.650;2024-03-08T04:00:17;19.40;40.70
7476;DHT22;3779;49.216;8.650;2024-03-08T04:03:04;19.40;39.50
7476;DHT22;3779;49.216;8.650;2024-03-08T04:05:50;19.40;40.10
7476;DHT22;3779;49.216;8.650;2024-03-08T04:08:36;19.40;39.80
7476;DHT22;3779;49.216;8.650;2024-03-08T04:11:22;19.40;40.50
7476;DHT22;3779;49.216;8.650;2024-03-08T04:14:07;19.40;42.90
7476;DHT22;3779;49.216;8.650;2024-03-08T04:16:53;19.50;42.10
7476;DHT22;3779;49.216;8.650;2024-03-08T04:19:39;19.50;39.40
7476;DHT22;3779;49.216;8.650;2024-03-08T04:22:27;19.50;39.00
7476;DHT22;3779;49.216;8.650;2024-03-08T04:25:14;19.50;40.50
7476;DHT22;3779;49.216;8.650;2024-03-08T04:28:00;19.50;40.60
7476;DHT22;3779;49.216;8.650;2024-03-08T04:30:46;19.50;42.10
7476;DHT22;3779;49.216;8.650;2024-03-08T04:33:31;19.50;41.20
7476;DHT22;3779;49.216;8.650;2024-03-08T04:36:17;19.40;41.00
7476;DHT22;3779;49.216;8.650;2024-03-08T04:39:03;19.50;41.20
7476;DHT22;3779;49.216;8.650;2024-03-08T04:41:49;20.10;41.30
7476;DHT22;3779;49.216;8.650;2024-03-08T04:44:36;19.40;40.50
7476;DHT22;3779;49.216;8.650;2024-03-08T04:47:23;19.40;40.40
7476;DHT22;3779;49.216;8.650;2024-03-08T04:50:09;19.40;39.00
7476;DHT22;3779;49.216;8.650;2024-03-08T04:52:55;19.40;40.90
7476;DHT22;3779;49.216;8.650;2024-03-08T04:55:41;19.40;40.50
7476;DHT22;3779;49.216;8.650;2024-03-08T04:58:26;19.40;40.10
7476;DHT22;3779;49.216;8.650;2024-03-08T05:01:12;19.40;40.30
7476;DHT22;3779;49.216;8.650;2024-03-08T05:03:58;19.40;39.20
7476;DHT22;3779;49.216;8.650;2024-03-08T05:06:44;19.40;39.90
7476;DHT22;3779;49.216;8.650;2024-03-08T05:09:30;19.40;41.30
7476;DHT22;3779;49.216;8.650;2024-03-08T05:12:18;19.40;38.30
7476;DHT22;3779;49.216;8.650;2024-03-08T05:15:04;19.40;37.80
7476;DHT22;3779;49.216;8.650;2024-03-08T05:17:50;19.30;38.30
7476;DHT22;3779;49.216;8.650;2024-03-08T05:20:36;19.30;38.30
7476;DHT22;3779;49.216;8.650;2024-03-08T05:23:22;19.30;38.70
7476;DHT22;3779;49.216;8.650;2024-03-08T05:26:08;19.30;38.00
7476;DHT22;3779;49.216;8.650;2024-03-08T05:28:54;19.30;39.40
7476;DHT22;3779;49.216;8.650;2024-03-08T05:31:50;19.30;39.80
7476;DHT22;3779;49.216;8.650;2024-03-08T05:34:38;19.30;41.20
7476;DHT22;3779;49.216;8.650;2024-03-08T05:37:24;19.40;40.20
7476;DHT22;3779;49.216;8.650;2024-03-08T05:40:09;19.30;38.70
7476;DHT22;3779;49.216;8.650;2024-03-08T05:42:55;19.30;39.80
7476;DHT22;3779;49.216;8.650;2024-03-08T05:45:41;19.30;39.20
7476;DHT22;3779;49.216;8.650;2024-03-08T05:48:27;19.30;38.70
7476;DHT22;3779;49.216;8.650;2024-03-08T05:51:13;19.30;38.80
7476;DHT22;3779;49.216;8.650;2024-03-08T05:54:05;19.30;42.20
7476;DHT22;3779;49.216;8.650;2024-03-08T05:56:51;19.30;40.50
7476;DHT22;3779;49.216;8.650;2024-03-08T05:59:38;19.30;40.60
7476;DHT22;3779;49.216;8.650;2024-03-08T06:02:24;19.30;38.20
7476;DHT22;3779;49.216;8.650;2024-03-08T06:05:12;19.40;40.50
7476;DHT22;3779;49.216;8.650;2024-03-08T06:07:58;19.40;41.40
7476;DHT22;3779;49.216;8.650;2024-03-08T06:13:47;19.40;38.80
7476;DHT22;3779;49.216;8.650;2024-03-08T06:16:33;19.60;39.10
7476;DHT22;3779;49.216;8.650;2024-03-08T06:27:48;19.30;41.60
7476;DHT22;3779;49.216;8.650;2024-03-08T06:30:25;19.30;40.20
7476;DHT22;3779;49.216;8.650;2024-03-08T06:33:12;19.30;39.60
7476;DHT22;3779;49.216;8.650;2024-03-08T06:36:01;19.50;37.50
7476;DHT22;3779;49.216;8.650;2024-03-08T06:38:47;19.30;40.90
7476;DHT22;3779;49.216;8.650;2024-03-08T06:44:32;19.30;41.90
7476;DHT22;3779;49.216;8.650;2024-03-08T06:47:21;19.30;40.60
7476;DHT22;3779;49.216;8.650;2024-03-08T06:50:11;19.60;42.50
7476;DHT22;3779;49.216;8.650;2024-03-08T06:52:57;19.30;43.00
7476;DHT22;3779;49.216;8.650;2024-03-08T06:55:45;19.70;42.10
7476;DHT22;3779;49.216;8.650;2024-03-08T07:15:46;19.40;42.10
7476;DHT22;3779;49.216;8.650;2024-03-08T07:18:36;19.70;43.30
7476;DHT22;3779;49.216;8.650;2024-03-08T07:21:19;19.40;41.20
7476;DHT22;3779;49.216;8.650;2024-03-08T07:24:05;19.40;33.30
7476;DHT22;3779;49.216;8.650;2024-03-08T07:27:06;19.10;32.30
7476;DHT22;3779;49.216;8.650;2024-03-08T07:29:52;18.90;32.10
7476;DHT22;3779;49.216;8.650;2024-03-08T07:32:38;18.90;31.50
7476;DHT22;3779;49.216;8.650;2024-03-08T07:35:23;18.70;31.60
7476;DHT22;3779;49.216;8.650;2024-03-08T07:38:11;18.60;31.80
7476;DHT22;3779;49.216;8.650;2024-03-08T07:40:57;18.60;31.70
7476;DHT22;3779;49.216;8.650;2024-03-08T07:43:43;18.50;31.50
7476;DHT22;3779;49.216;8.650;2024-03-08T07:46:29;18.50;31.40
7476;DHT22;3779;49.216;8.650;2024-03-08T07:49:15;18.40;31.50
7476;DHT22;3779;49.216;8.650;2024-03-08T07:52:00;18.40;32.00
7476;DHT22;3779;49.216;8.650;2024-03-08T07:54:46;18.40;31.40
7476;DHT22;3779;49.216;8.650;2024-03-08T07:57:32;18.40;32.20
7476;DHT22;3779;49.216;8.650;2024-03-08T08:00:18;18.40;38.80
7476;DHT22;3779;49.216;8.650;2024-03-08T08:03:04;18.60;36.70
7476;DHT22;3779;49.216;8.650;2024-03-08T08:05:50;18.70;42.00
7476;DHT22;3779;49.216;8.650;2024-03-08T08:08:36;18.90;39.80
7476;DHT22;3779;49.216;8.650;2024-03-08T08:11:22;19.00;40.80
7476;DHT22;3779;49.216;8.650;2024-03-08T08:14:08;19.00;38.90
7476;DHT22;3779;49.216;8.650;2024-03-08T08:16:55;19.00;39.60
7476;DHT22;3779;49.216;8.650;2024-03-08T08:19:42;19.00;41.60
7476;DHT22;3779;49.216;8.650;2024-03-08T08:22:28;19.10;40.90
7476;DHT22;3779;49.216;8.650;2024-03-08T08:25:15;19.20;40.60
7476;DHT22;3779;49.216;8.650;2024-03-08T08:28:01;19.30;40.70
7476;DHT22;3779;49.216;8.650;2024-03-08T08:51:21;19.20;39.60
7476;DHT22;3779;49.216;8.650;2024-03-08T09:41:29;19.10;36.90
7476;DHT22;3779;49.216;8.650;2024-03-08T09:44:16;19.10;38.40
7476;DHT22;3779;49.216;8.650;2024-03-08T09:47:02;19.10;38.20
7476;DHT22;3779;49.216;8.650;2024-03-08T09:49:48;19.20;38.60
7476;DHT22;3779;49.216;8.650;2024-03-08T09:52:36;19.20;37.40
7476;DHT22;3779;49.216;8.650;2024-03-08T09:55:22;19.20;37.50
7476;DHT22;3779;49.216;8.650;2024-03-08T09:58:12;19.20;37.00
7476;DHT22;3779;49.216;8.650;2024-03-08T10:01:13;19.20;37.00
7476;DHT22;3779;49.216;8.650;2024-03-08T10:03:59;19.20;38.60
7476;DHT22;3779;49.216;8.650;2024-03-08T10:06:45;19.20;39.70
7476;DHT22;3779;49.216;8.650;2024-03-08T10:09:33;19.30;40.00
7476;DHT22;3779;49.216;8.650;2024-03-08T10:12:18;19.30;38.50
7476;DHT22;3779;49.216;8.650;2024-03-08T10:15:08;19.30;39.80
7476;DHT22;3779;49.216;8.650;2024-03-08T10:17:55;19.30;38.40
7476;DHT22;3779;49.216;8.650;2024-03-08T10:20:42;19.30;38.30
7476;DHT22;3779;49.216;8.650;2024-03-08T10:23:28;19.30;40.10
7476;DHT22;3779;49.216;8.650;2024-03-08T10:26:16;19.30;37.50
7476;DHT22;3779;49.216;8.650;2024-03-08T10:29:04;19.30;36.00
7476;DHT22;3779;49.216;8.650;2024-03-08T10:31:49;19.10;36.30
7476;DHT22;3779;49.216;8.650;2024-03-08T10:34:36;19.10;35.80
7476;DHT22;3779;49.216;8.650;2024-03-08T10:37:22;19.10;37.70
7476;DHT22;3779;49.216;8.650;2024-03-08T10:40:17;19.10;40.00
7476;DHT22;3779;49.216;8.650;2024-03-08T10:43:04;19.20;37.50
7476;DHT22;3779;49.216;8.650;2024-03-08T10:45:54;19.30;40.90
7476;DHT22;3779;49.216;8.650;2024-03-08T10:48:48;19.30;39.70
7476;DHT22;3779;49.216;8.650;2024-03-08T10:51:36;19.30;41.30
7476;DHT22;3779;49.216;8.650;2024-03-08T10:54:25;19.40;42.80
7476;DHT22;3779;49.216;8.650;2024-03-08T10:57:13;19.20;37.60
7476;DHT22;3779;49.216;8.650;2024-03-08T11:00:02;19.20;41.50
7476;DHT22;3779;49.216;8.650;2024-03-08T11:02:49;19.30;40.50
7476;DHT22;3779;49.216;8.650;2024-03-08T11:05:41;19.20;37.40
7476;DHT22;3779;49.216;8.650;2024-03-08T11:08:30;19.30;40.50
7476;DHT22;3779;49.216;8.650;2024-03-08T11:11:31;19.30;39.10
7476;DHT22;3779;49.216;8.650;2024-03-08T11:14:43;19.30;36.10
7476;DHT22;3779;49.216;8.650;2024-03-08T11:20:20;19.10;37.00
7476;DHT22;3779;49.216;8.650;2024-03-08T11:23:08;19.10;39.40
7476;DHT22;3779;49.216;8.650;2024-03-08T11:25:54;19.10;38.20
7476;DHT22;3779;49.216;8.650;2024-03-08T11:28:40;19.20;38.40
7476;DHT22;3779;49.216;8.650;2024-03-08T11:31:26;19.20;37.90
7476;DHT22;3779;49.216;8.650;2024-03-08T11:34:15;19.20;43.50
7476;DHT22;3779;49.216;8.650;2024-03-08T11:37:05;19.30;43.10
7476;DHT22;3779;49.216;8.650;2024-03-08T11:39:55;19.50;37.10
7476;DHT22;3779;49.216;8.650;2024-03-08T11:42:50;19.30;40.60
7476;DHT22;3779;49.216;8.650;2024-03-08T11:45:40;19.20;43.80
7476;DHT22;3779;49.216;8.650;2024-03-08T11:51:29;19.30;41.00
7476;DHT22;3779;49.216;8.650;2024-03-08T11:57:50;19.40;43.80
7476;DHT22;3779;49.216;8.650;2024-03-08T12:03:31;19.50;44.30
7476;DHT22;3779;49.216;8.650;2024-03-08T12:09:38;19.50;44.20
7476;DHT22;3779;49.216;8.650;2024-03-08T12:12:32;19.50;44.50
7476;DHT22;3779;49.216;8.650;2024-03-08T12:15:21;19.60;44.70
7476;DHT22;3779;49.216;8.650;2024-03-08T12:18:07;19.50;45.50
7476;DHT22;3779;49.216;8.650;2024-03-08T12:21:12;19.60;43.60
7476;DHT22;3779;49.216;8.650;2024-03-08T12:24:16;19.50;44.20
7476;DHT22;3779;49.216;8.650;2024-03-08T12:27:18;19.40;38.50
7476;DHT22;3779;49.216;8.650;2024-03-08T12:30:26;19.30;46.00
7476;DHT22;3779;49.216;8.650;2024-03-08T12:33:15;19.50;40.90
7476;DHT22;3779;49.216;8.650;2024-03-08T12:36:00;19.30;43.90
7476;DHT22;3779;49.216;8.650;2024-03-08T12:38:47;19.50;43.40
7476;DHT22;3779;49.216;8.650;2024-03-08T12:41:43;19.50;40.70
7476;DHT22;3779;49.216;8.650;2024-03-08T12:44:29;19.50;41.70
7476;DHT22;3779;49.216;8.650;2024-03-08T12:47:20;19.50;42.50
7476;DHT22;3779;49.216;8.650;2024-03-08T12:50:09;19.60;41.50
7476;DHT22;3779;49.216;8.650;2024-03-08T12:52:55;19.40;38.40
7476;DHT22;3779;49.216;8.650;2024-03-08T12:55:51;19.50;45.50
7476;DHT22;3779;49.216;8.650;2024-03-08T12:58:38;19.60;43.70
7476;DHT22;3779;49.216;8.650;2024-03-08T13:01:27;19.60;40.10
7476;DHT22;3779;49.216;8.650;2024-03-08T13:04:13;19.50;42.30
7476;DHT22;3779;49.216;8.650;2024-03-08T13:07:02;19.50;39.40
7476;DHT22;3779;49.216;8.650;2024-03-08T13:09:48;19.50;37.90
7476;DHT22;3779;49.216;8.650;2024-03-08T13:12:35;19.40;42.90
7476;DHT22;3779;49.216;8.650;2024-03-08T13:15:24;19.50;44.60
7476;DHT22;3779;49.216;8.650;2024-03-08T13:18:10;19.50;43.10
7476;DHT22;3779;49.216;8.650;2024-03-08T13:20:56;19.60;42.40
7476;DHT22;3779;49.216;8.650;2024-03-08T13:23:43;19.60;44.10
7476;DHT22;3779;49.216;8.650;2024-03-08T13:26:31;19.60;42.30
7476;DHT22;3779;49.216;8.650;2024-03-08T13:29:21;19.60;41.00
7476;DHT22;3779;49.216;8.650;2024-03-08T13:32:07;19.60;41.60
7476;DHT22;3779;49.216;8.650;2024-03-08T13:38:04;19.60;42.60
7476;DHT22;3779;49.216;8.650;2024-03-08T13:44:13;19.60;39.60
7476;DHT22;3779;49.216;8.650;2024-03-08T13:47:00;19.50;36.30
7476;DHT22;3779;49.216;8.650;2024-03-08T13:53:12;19.30;36.70
7476;DHT22;3779;49.216;8.650;2024-03-08T14:02:04;19.10;38.60
7476;DHT22;3779;49.216;8.650;2024-03-08T14:04:50;20.30;43.30
7476;DHT22;3779;49.216;8.650;2024-03-08T14:07:36;19.20;42.30
7476;DHT22;3779;49.216;8.650;2024-03-08T14:10:22;19.30;40.60
7476;DHT22;3779;49.216;8.650;2024-03-08T14:13:09;20.20;42.90
7476;DHT22;3779;49.216;8.650;2024-03-08T14:56:21;19.50;41.20
7476;DHT22;3779;49.216;8.650;2024-03-08T14:59:13;19.50;40.20
7476;DHT22;3779;49.216;8.650;2024-03-08T15:04:57;19.50;37.70
7476;DHT22;3779;49.216;8.650;2024-03-08T15:23:23;19.30;36.40
7476;DHT22;3779;49.216;8.650;2024-03-08T15:26:43;19.30;36.60
7476;DHT22;3779;49.216;8.650;2024-03-08T16:16:06;19.30;37.50
7476;DHT22;3779;49.216;8.650;2024-03-08T16:21:55;19.20;36.10
7476;DHT22;3779;49.216;8.650;2024-03-08T16:43:02;19.40;37.70
7476;DHT22;3779;49.216;8.650;2024-03-08T16:45:49;19.40;35.20
7476;DHT22;3779;49.216;8.650;2024-03-08T16:48:45;19.40;34.40
7476;DHT22;3779;49.216;8.650;2024-03-08T16:51:31;19.40;34.30
7476;DHT22;3779;49.216;8.650;2024-03-08T16:54:20;20.10;35.20
7476;DHT22;3779;49.216;8.650;2024-03-08T19:49:25;19.30;38.70
